createdAt,value
2019-04-07T00:00:41.145Z,60.55
2019-04-07T00:01:41.195Z,60.55
2019-04-07T00:02:41.102Z,60.65
2019-04-07T00:03:41.087Z,60.44
2019-04-07T00:04:41.437Z,60.44
2019-04-07T00:05:41.531Z,60.44
2019-04-07T00:06:41.506Z,60.44
2019-04-07T00:07:41.431Z,60.55
2019-04-07T00:08:41.049Z,60.58
2019-04-07T00:09:41.023Z,60.78
2019-04-07T00:10:41.386Z,60.88
2019-04-07T00:11:41.015Z,61.40
2019-04-07T00:12:41.247Z,61.01
2019-04-07T00:13:41.398Z,61.70
2019-04-07T00:14:40.979Z,61.83
2019-04-07T00:15:41.524Z,61.73
2019-04-07T00:16:40.955Z,61.63
2019-04-07T00:17:40.933Z,61.70
2019-04-07T00:18:40.991Z,61.83
2019-04-07T00:19:40.917Z,61.60
2019-04-07T00:20:42.010Z,61.63
2019-04-07T00:21:40.938Z,61.70
2019-04-07T00:22:40.884Z,61.63
2019-04-07T00:23:40.876Z,61.73
2019-04-07T00:24:40.862Z,61.73
2019-04-07T00:25:41.440Z,61.32
2019-04-07T00:26:40.839Z,61.01
2019-04-07T00:27:40.842Z,61.22
2019-04-07T00:28:40.841Z,61.43
2019-04-07T00:29:40.803Z,61.40
2019-04-07T00:30:40.798Z,61.11
2019-04-07T00:31:40.850Z,61.01
2019-04-07T00:32:41.292Z,61.73
2019-04-07T00:33:41.315Z,61.43
2019-04-07T00:34:41.338Z,61.29
2019-04-07T00:35:40.737Z,61.19
2019-04-07T00:36:40.734Z,60.99
2019-04-07T00:37:40.721Z,60.99
2019-04-07T00:38:40.716Z,60.99
2019-04-07T00:39:41.327Z,60.91
2019-04-07T00:40:40.684Z,60.99
2019-04-07T00:41:40.689Z,61.01
2019-04-07T00:42:41.222Z,61.43
2019-04-07T00:43:40.654Z,61.83
2019-04-07T00:44:40.646Z,61.52
2019-04-07T00:45:40.630Z,61.15
2019-04-07T00:46:40.631Z,61.25
2019-04-07T00:47:40.614Z,61.86
2019-04-07T00:48:40.764Z,62.17
2019-04-07T00:49:41.074Z,61.96
2019-04-07T00:50:40.611Z,62.07
2019-04-07T00:51:41.008Z,61.86
2019-04-07T00:52:40.562Z,62.27
2019-04-07T00:53:40.847Z,62.27
2019-04-07T00:54:40.897Z,62.92
2019-04-07T00:55:40.837Z,62.68
2019-04-07T00:56:41.080Z,62.58
2019-04-07T00:57:40.747Z,62.81
2019-04-07T00:58:40.494Z,62.92
2019-04-07T00:59:40.836Z,62.71
2019-04-07T01:00:40.485Z,63.64
2019-04-07T01:01:40.458Z,63.43
2019-04-07T01:02:41.308Z,63.32
2019-04-07T01:03:40.462Z,63.12
2019-04-07T01:04:40.685Z,63.94
2019-04-07T01:05:41.802Z,63.12
2019-04-07T01:06:40.627Z,63.32
2019-04-07T01:07:40.985Z,63.12
2019-04-07T01:08:40.387Z,63.53
2019-04-07T01:09:40.408Z,63.22
2019-04-07T01:10:40.547Z,63.35
2019-04-07T01:11:40.350Z,63.25
2019-04-07T01:12:40.336Z,63.46
2019-04-07T01:13:40.329Z,63.66
2019-04-07T01:14:40.313Z,63.25
2019-04-07T01:15:40.651Z,63.56
2019-04-07T01:16:40.718Z,63.97
2019-04-07T01:17:40.281Z,63.97
2019-04-07T01:18:40.514Z,63.76
2019-04-07T01:19:40.694Z,63.66
2019-04-07T01:20:40.268Z,64.07
2019-04-07T01:21:40.423Z,63.76
2019-04-07T01:22:40.778Z,64.31
2019-04-07T01:23:40.212Z,64.38
2019-04-07T01:24:40.667Z,64.41
2019-04-07T01:25:40.190Z,64.31
2019-04-07T01:26:40.490Z,64.51
2019-04-07T01:27:40.170Z,64.31
2019-04-07T01:28:40.697Z,64.41
2019-04-07T01:29:40.151Z,64.31
2019-04-07T01:30:40.418Z,64.51
2019-04-07T01:31:40.452Z,64.82
2019-04-07T01:32:40.121Z,64.92
2019-04-07T01:33:40.151Z,64.82
2019-04-07T01:34:40.438Z,65.23
2019-04-07T01:35:46.212Z,65.16
2019-04-07T01:36:41.306Z,65.03
2019-04-07T01:37:40.619Z,65.16
2019-04-07T01:38:40.053Z,65.03
2019-04-07T01:39:40.043Z,65.36
2019-04-07T01:40:40.033Z,65.47
2019-04-07T01:41:40.735Z,65.57
2019-04-07T01:42:40.014Z,65.57
2019-04-07T01:43:40.486Z,65.60
2019-04-07T01:44:39.980Z,65.77
2019-04-07T01:45:39.975Z,65.91
2019-04-07T01:46:40.459Z,65.80
2019-04-07T01:47:39.982Z,66.01
2019-04-07T01:48:39.944Z,66.66
2019-04-07T01:49:40.170Z,66.66
2019-04-07T01:50:39.916Z,66.66
2019-04-07T01:51:40.091Z,66.76
2019-04-07T01:52:39.896Z,66.96
2019-04-07T01:53:39.890Z,67.48
2019-04-07T01:54:39.905Z,67.58
2019-04-07T01:55:40.047Z,67.82
2019-04-07T01:56:39.997Z,67.71
2019-04-07T01:57:39.940Z,67.92
2019-04-07T01:58:40.656Z,67.92
2019-04-07T01:59:39.814Z,68.02
2019-04-07T02:00:40.368Z,68.02
2019-04-07T02:01:39.796Z,68.33
2019-04-07T02:02:40.115Z,68.64
2019-04-07T02:03:39.779Z,68.74
2019-04-07T02:04:47.945Z,68.13
2019-04-07T02:05:39.766Z,68.23
2019-04-07T02:06:39.918Z,68.33
2019-04-07T02:07:40.100Z,67.92
2019-04-07T02:08:40.243Z,68.33
2019-04-07T02:09:40.230Z,68.33
2019-04-07T02:10:39.698Z,67.82
2019-04-07T02:11:39.792Z,68.33
2019-04-07T02:12:40.157Z,67.92
2019-04-07T02:13:40.428Z,68.13
2019-04-07T02:14:39.653Z,67.82
2019-04-07T02:15:39.650Z,68.23
2019-04-07T02:16:39.974Z,68.33
2019-04-07T02:17:39.622Z,68.23
2019-04-07T02:18:40.082Z,67.82
2019-04-07T02:19:39.662Z,68.23
2019-04-07T02:20:39.580Z,68.02
2019-04-07T02:21:40.289Z,68.33
2019-04-07T02:22:39.568Z,68.02
2019-04-07T02:23:39.557Z,68.98
2019-04-07T02:24:39.935Z,68.37
2019-04-07T02:25:39.524Z,68.88
2019-04-07T02:26:39.518Z,68.88
2019-04-07T02:27:39.628Z,68.88
2019-04-07T02:28:39.494Z,68.46
2019-04-07T02:29:40.056Z,68.37
2019-04-07T02:30:39.527Z,68.77
2019-04-07T02:31:40.117Z,68.67
2019-04-07T02:32:39.454Z,68.46
2019-04-07T02:33:39.496Z,69.39
2019-04-07T02:34:40.106Z,69.09
2019-04-07T02:35:39.422Z,69.73
2019-04-07T02:36:39.406Z,69.29
2019-04-07T02:37:39.427Z,69.42
2019-04-07T02:38:39.391Z,69.39
2019-04-07T02:39:39.384Z,69.73
2019-04-07T02:40:39.516Z,69.42
2019-04-07T02:41:40.172Z,69.42
2019-04-07T02:42:39.600Z,69.12
2019-04-07T02:43:40.272Z,69.66
2019-04-07T02:44:39.319Z,69.35
2019-04-07T02:45:39.307Z,70.07
2019-04-07T02:46:39.515Z,70.28
2019-04-07T02:47:39.398Z,70.45
2019-04-07T02:48:39.578Z,70.14
2019-04-07T02:49:39.470Z,70.04
2019-04-07T02:50:39.907Z,70.25
2019-04-07T02:51:40.254Z,69.94
2019-04-07T02:52:39.233Z,69.53
2019-04-07T02:53:39.239Z,69.22
2019-04-07T02:54:40.049Z,69.73
2019-04-07T02:55:39.201Z,69.63
2019-04-07T02:56:39.882Z,69.73
2019-04-07T02:57:40.302Z,69.63
2019-04-07T02:58:40.109Z,69.12
2019-04-07T02:59:42.266Z,69.32
2019-04-07T03:00:39.393Z,69.73
2019-04-07T03:01:39.239Z,69.73
2019-04-07T03:02:39.336Z,69.01
2019-04-07T03:03:39.506Z,69.22
2019-04-07T03:04:39.103Z,69.12
2019-04-07T03:05:39.088Z,69.01
2019-04-07T03:06:45.991Z,69.53
2019-04-07T03:07:41.162Z,69.53
2019-04-07T03:08:39.630Z,69.25
2019-04-07T03:09:40.012Z,69.32
2019-04-07T03:10:39.041Z,70.07
2019-04-07T03:11:39.302Z,69.87
2019-04-07T03:12:39.341Z,69.97
2019-04-07T03:13:39.003Z,69.25
2019-04-07T03:14:39.211Z,70.18
2019-04-07T03:15:38.990Z,70.28
2019-04-07T03:16:39.439Z,70.07
2019-04-07T03:17:38.988Z,70.07
2019-04-07T03:18:39.093Z,69.87
2019-04-07T03:19:39.341Z,70.18
2019-04-07T03:20:39.227Z,70.28
2019-04-07T03:21:39.036Z,70.28
2019-04-07T03:22:39.624Z,69.97
2019-04-07T03:23:38.893Z,70.18
2019-04-07T03:24:38.891Z,69.87
2019-04-07T03:25:39.752Z,69.97
2019-04-07T03:26:38.860Z,70.07
2019-04-07T03:27:38.852Z,70.18
2019-04-07T03:28:39.919Z,70.31
2019-04-07T03:29:38.817Z,70.62
2019-04-07T03:30:40.989Z,70.21
2019-04-07T03:31:40.519Z,70.48
2019-04-07T03:32:41.328Z,70.07
2019-04-07T03:33:43.045Z,69.56
2019-04-07T03:34:40.868Z,70.07
2019-04-07T03:35:40.978Z,70.28
2019-04-07T03:37:11.016Z,70.21
2019-04-07T03:37:44.101Z,70.07
2019-04-07T03:38:40.935Z,70.31
2019-04-07T03:39:39.382Z,70.07
2019-04-07T03:40:38.711Z,69.87
2019-04-07T03:41:39.919Z,70.18
2019-04-07T03:42:38.698Z,70.31
2019-04-07T03:43:38.676Z,70.72
2019-04-07T03:44:38.691Z,70.52
2019-04-07T03:45:38.642Z,70.62
2019-04-07T03:46:38.915Z,70.21
2019-04-07T03:47:39.511Z,70.10
2019-04-07T03:48:38.620Z,71.17
2019-04-07T03:49:39.304Z,71.06
2019-04-07T03:50:38.775Z,70.89
2019-04-07T03:51:39.331Z,71.30
2019-04-07T03:52:39.387Z,71.72
2019-04-07T03:53:39.294Z,71.92
2019-04-07T03:54:38.571Z,71.78
2019-04-07T03:55:38.585Z,71.27
2019-04-07T03:56:38.523Z,71.27
2019-04-07T03:57:39.030Z,71.27
2019-04-07T03:58:39.676Z,71.61
2019-04-07T03:59:38.500Z,71.61
2019-04-07T04:00:39.289Z,73.05
2019-04-07T04:01:38.464Z,72.64
2019-04-07T04:02:39.079Z,72.67
2019-04-07T04:03:38.669Z,72.64
2019-04-07T04:04:39.359Z,73.19
2019-04-07T04:05:39.329Z,73.30
2019-04-07T04:06:38.946Z,73.05
2019-04-07T04:07:38.798Z,73.50
2019-04-07T04:08:38.390Z,73.19
2019-04-07T04:09:40.627Z,73.16
2019-04-07T04:10:38.605Z,73.40
2019-04-07T04:11:38.351Z,73.30
2019-04-07T04:12:38.580Z,73.71
2019-04-07T04:13:38.339Z,73.71
2019-04-07T04:14:38.319Z,73.09
2019-04-07T04:15:39.460Z,73.71
2019-04-07T04:16:38.355Z,73.91
2019-04-07T04:17:39.147Z,74.05
2019-04-07T04:18:38.285Z,73.85
2019-04-07T04:19:38.274Z,74.26
2019-04-07T04:20:38.784Z,75.22
2019-04-07T04:21:38.256Z,75.53
2019-04-07T04:22:39.400Z,75.74
2019-04-07T04:23:41.532Z,75.57
2019-04-07T04:24:38.259Z,76.04
2019-04-07T04:25:38.579Z,75.53
2019-04-07T04:26:38.232Z,76.08
2019-04-07T04:27:38.751Z,75.95
2019-04-07T04:28:39.031Z,75.53
2019-04-07T04:29:38.183Z,75.84
2019-04-07T04:30:38.171Z,75.63
2019-04-07T04:31:38.872Z,75.53
2019-04-07T04:32:38.126Z,75.43
2019-04-07T04:33:38.114Z,75.63
2019-04-07T04:34:38.999Z,75.63
2019-04-07T04:35:38.841Z,75.49
2019-04-07T04:36:38.119Z,75.18
2019-04-07T04:37:44.391Z,74.57
2019-04-07T04:38:39.110Z,75.18
2019-04-07T04:39:38.777Z,75.18
2019-04-07T04:40:38.030Z,74.46
2019-04-07T04:41:38.016Z,74.36
2019-04-07T04:42:38.036Z,74.12
2019-04-07T04:43:38.226Z,74.33
2019-04-07T04:44:38.052Z,73.91
2019-04-07T04:45:38.631Z,73.81
2019-04-07T04:46:38.767Z,73.81
2019-04-07T04:47:39.138Z,73.60
2019-04-07T04:48:38.828Z,73.50
2019-04-07T04:49:38.427Z,73.71
2019-04-07T04:50:38.483Z,73.33
2019-04-07T04:51:39.551Z,73.50
2019-04-07T04:52:38.307Z,73.30
2019-04-07T04:53:38.180Z,72.75
2019-04-07T04:54:38.626Z,71.89
2019-04-07T04:55:37.858Z,71.24
2019-04-07T04:56:37.852Z,70.07
2019-04-07T04:57:37.864Z,69.97
2019-04-07T04:58:38.058Z,68.50
2019-04-07T04:59:37.814Z,68.46
2019-04-07T05:00:38.405Z,67.51
2019-04-07T05:01:37.916Z,67.10
2019-04-07T05:02:38.256Z,67.20
2019-04-07T05:03:38.316Z,66.45
2019-04-07T05:04:38.490Z,66.25
2019-04-07T05:05:38.040Z,65.60
2019-04-07T05:06:37.912Z,65.50
2019-04-07T05:07:51.682Z,65.50
2019-04-07T05:08:39.196Z,64.78
2019-04-07T05:09:44.552Z,64.34
2019-04-07T05:10:38.767Z,63.79
2019-04-07T05:11:37.682Z,64.00
2019-04-07T05:12:37.923Z,63.56
2019-04-07T05:13:37.658Z,63.46
2019-04-07T05:14:37.862Z,62.19
2019-04-07T05:15:37.843Z,62.19
2019-04-07T05:16:37.624Z,61.99
2019-04-07T05:17:38.156Z,62.10
2019-04-07T05:18:38.257Z,61.99
2019-04-07T05:19:37.597Z,62.19
2019-04-07T05:20:37.708Z,61.89
2019-04-07T05:21:37.761Z,61.89
2019-04-07T05:22:38.037Z,61.04
2019-04-07T05:23:37.546Z,61.04
2019-04-07T05:24:37.685Z,60.53
2019-04-07T05:25:37.802Z,60.60
2019-04-07T05:26:37.723Z,60.50
2019-04-07T05:27:38.169Z,59.99
2019-04-07T05:28:38.042Z,59.96
2019-04-07T05:29:37.477Z,59.45
2019-04-07T05:30:38.022Z,59.53
2019-04-07T05:31:37.979Z,58.91
2019-04-07T05:32:37.756Z,59.01
2019-04-07T05:33:37.433Z,58.07
2019-04-07T05:34:37.800Z,58.98
2019-04-07T05:35:37.975Z,58.25
2019-04-07T05:36:37.935Z,57.93
2019-04-07T05:37:37.392Z,57.50
2019-04-07T05:38:37.755Z,57.20
2019-04-07T05:39:37.369Z,56.56
2019-04-07T05:40:37.367Z,56.25
2019-04-07T05:41:37.353Z,56.58
2019-04-07T05:42:37.959Z,57.32
2019-04-07T05:43:38.112Z,57.93
2019-04-07T05:44:37.312Z,57.20
2019-04-07T05:45:37.701Z,56.58
2019-04-07T05:46:40.920Z,56.79
2019-04-07T05:47:38.701Z,57.20
2019-04-07T05:48:37.277Z,57.81
2019-04-07T05:49:37.786Z,57.12
2019-04-07T05:50:37.249Z,57.40
2019-04-07T05:51:37.236Z,56.68
2019-04-07T05:52:39.791Z,56.56
2019-04-07T05:53:37.707Z,55.91
2019-04-07T05:54:37.837Z,55.28
2019-04-07T05:55:37.247Z,55.69
2019-04-07T05:56:37.186Z,55.28
2019-04-07T05:57:37.772Z,55.58
2019-04-07T05:58:38.693Z,55.05
2019-04-07T05:59:37.684Z,55.71
2019-04-07T06:00:37.199Z,55.71
2019-04-07T06:01:37.118Z,55.51
2019-04-07T06:02:37.538Z,55.69
2019-04-07T06:03:41.241Z,55.18
2019-04-07T06:04:38.092Z,55.79
2019-04-07T06:05:37.658Z,55.66
2019-04-07T06:06:39.970Z,55.35
2019-04-07T06:07:37.802Z,54.64
2019-04-07T06:08:39.212Z,55.35
2019-04-07T06:09:37.326Z,55.58
2019-04-07T06:10:37.127Z,55.07
2019-04-07T06:11:37.779Z,55.69
2019-04-07T06:12:40.871Z,54.44
2019-04-07T06:13:38.086Z,55.58
2019-04-07T06:14:36.976Z,55.89
2019-04-07T06:15:36.967Z,55.69
2019-04-07T06:16:37.718Z,55.41
2019-04-07T06:17:36.960Z,55.82
2019-04-07T06:18:36.948Z,55.69
2019-04-07T06:19:40.634Z,55.35
2019-04-07T06:20:36.994Z,55.56
2019-04-07T06:21:37.749Z,54.82
2019-04-07T06:22:37.034Z,54.85
2019-04-07T06:23:37.485Z,55.58
2019-04-07T06:24:36.867Z,54.85
2019-04-07T06:25:40.844Z,55.13
2019-04-07T06:26:41.533Z,54.21
2019-04-07T06:27:36.828Z,54.41
2019-04-07T06:28:37.030Z,54.82
2019-04-07T06:29:36.818Z,53.88
2019-04-07T06:30:37.273Z,52.83
2019-04-07T06:31:36.792Z,52.76
2019-04-07T06:32:38.391Z,53.37
2019-04-07T06:33:38.255Z,53.16
2019-04-07T06:34:39.745Z,52.73
2019-04-07T06:35:36.764Z,52.50
2019-04-07T06:36:36.733Z,52.28
2019-04-07T06:37:37.344Z,50.62
2019-04-07T06:38:41.624Z,50.62
2019-04-07T06:39:38.978Z,51.01
2019-04-07T06:40:37.276Z,50.37
2019-04-07T06:41:36.765Z,50.70
2019-04-07T06:42:36.666Z,50.42
2019-04-07T06:43:38.477Z,51.14
2019-04-07T06:44:36.794Z,51.77
2019-04-07T06:45:36.632Z,50.32
2019-04-07T06:46:36.881Z,51.75
2019-04-07T06:47:37.163Z,50.60
2019-04-07T06:48:39.052Z,50.48
2019-04-07T06:49:37.083Z,49.84
2019-04-07T06:50:47.722Z,49.82
2019-04-07T06:51:37.563Z,48.18
2019-04-07T06:52:40.602Z,48.35
2019-04-07T06:53:38.172Z,48.86
2019-04-07T06:54:36.529Z,48.33
2019-04-07T06:55:36.724Z,47.09
2019-04-07T06:56:36.975Z,48.03
2019-04-07T06:57:37.724Z,47.62
2019-04-07T06:58:40.813Z,47.82
2019-04-07T06:59:37.471Z,48.05
2019-04-07T07:00:36.515Z,47.75
2019-04-07T07:01:36.450Z,48.55
2019-04-07T07:02:36.832Z,48.18
2019-04-07T07:03:38.830Z,48.55
2019-04-07T07:04:36.722Z,48.19
2019-04-07T07:05:36.418Z,49.72
2019-04-07T07:06:36.406Z,49.49
2019-04-07T07:07:36.493Z,48.38
2019-04-07T07:08:44.522Z,48.99
2019-04-07T07:09:38.722Z,48.27
2019-04-07T07:10:38.980Z,48.35
2019-04-07T07:11:40.852Z,47.95
2019-04-07T07:12:39.140Z,48.35
2019-04-07T07:13:36.805Z,48.96
2019-04-07T07:14:42.593Z,48.61
2019-04-07T07:15:37.327Z,47.19
2019-04-07T07:16:40.318Z,48.05
2019-04-07T07:17:37.674Z,48.66
2019-04-07T07:18:36.275Z,47.77
2019-04-07T07:19:36.247Z,48.76
2019-04-07T07:20:36.244Z,48.76
2019-04-07T07:21:39.282Z,47.95
2019-04-07T07:22:36.224Z,48.71
2019-04-07T07:23:36.424Z,49.90
2019-04-07T07:24:36.905Z,48.07
2019-04-07T07:25:36.351Z,49.49
2019-04-07T07:26:36.638Z,48.58
2019-04-07T07:27:38.919Z,48.55
2019-04-07T07:28:36.749Z,48.23
2019-04-07T07:29:36.239Z,48.25
2019-04-07T07:30:36.130Z,48.88
2019-04-07T07:31:36.884Z,49.29
2019-04-07T07:32:37.351Z,47.97
2019-04-07T07:33:38.936Z,47.95
2019-04-07T07:34:39.861Z,48.13
2019-04-07T07:35:37.665Z,47.80
2019-04-07T07:36:36.123Z,46.97
2019-04-07T07:37:36.050Z,47.30
2019-04-07T07:38:36.126Z,48.23
2019-04-07T07:39:36.217Z,47.19
2019-04-07T07:40:36.033Z,47.82
2019-04-07T07:41:36.568Z,47.92
2019-04-07T07:42:36.569Z,48.33
2019-04-07T07:43:35.976Z,48.23
2019-04-07T07:44:38.371Z,47.90
2019-04-07T07:45:36.215Z,47.13
2019-04-07T07:46:36.434Z,45.67
2019-04-07T07:47:36.287Z,45.14
2019-04-07T07:48:36.702Z,45.26
2019-04-07T07:49:39.898Z,44.56
2019-04-07T07:50:38.720Z,45.61
2019-04-07T07:51:38.431Z,46.42
2019-04-07T07:52:35.878Z,46.42
2019-04-07T07:53:36.132Z,45.18
2019-04-07T07:54:36.610Z,46.32
2019-04-07T07:55:37.557Z,46.50
2019-04-07T07:56:35.842Z,45.77
2019-04-07T07:57:35.827Z,45.25
2019-04-07T07:58:35.845Z,44.84
2019-04-07T07:59:38.961Z,44.42
2019-04-07T08:00:39.810Z,44.11
2019-04-07T08:01:37.337Z,44.29
2019-04-07T08:02:36.486Z,44.70
2019-04-07T08:03:36.070Z,44.51
2019-04-07T08:04:44.484Z,45.45
2019-04-07T08:05:36.594Z,44.62
2019-04-07T08:06:38.477Z,44.42
2019-04-07T08:07:35.937Z,44.31
2019-04-07T08:08:36.331Z,44.34
2019-04-07T08:09:35.686Z,45.18
2019-04-07T08:10:36.328Z,46.20
2019-04-07T08:11:35.673Z,46.12
2019-04-07T08:12:35.877Z,46.60
2019-04-07T08:13:42.043Z,46.36
2019-04-07T08:14:37.137Z,45.14
2019-04-07T08:15:36.087Z,45.12
2019-04-07T08:16:35.735Z,45.02
2019-04-07T08:17:35.690Z,44.74
2019-04-07T08:18:37.209Z,45.67
2019-04-07T08:19:38.206Z,46.15
2019-04-07T08:20:37.333Z,45.32
2019-04-07T08:21:35.552Z,43.91
2019-04-07T08:22:40.731Z,45.34
2019-04-07T08:23:37.337Z,45.12
2019-04-07T08:24:36.213Z,44.39
2019-04-07T08:25:35.781Z,44.92
2019-04-07T08:26:35.500Z,45.20
2019-04-07T08:27:35.586Z,44.15
2019-04-07T08:28:36.104Z,43.62
2019-04-07T08:29:37.555Z,43.12
2019-04-07T08:30:36.103Z,43.22
2019-04-07T08:31:35.444Z,43.02
2019-04-07T08:32:35.435Z,43.62
2019-04-07T08:33:35.568Z,43.00
2019-04-07T08:34:36.100Z,42.35
2019-04-07T08:35:38.792Z,42.58
2019-04-07T08:36:35.390Z,41.27
2019-04-07T08:37:36.389Z,43.12
2019-04-07T08:38:35.424Z,43.37
2019-04-07T08:39:36.538Z,43.95
2019-04-07T08:40:36.887Z,43.85
2019-04-07T08:41:35.340Z,44.13
2019-04-07T08:42:35.783Z,42.78
2019-04-07T08:43:35.318Z,41.83
2019-04-07T08:44:35.483Z,42.50
2019-04-07T08:45:35.809Z,43.52
2019-04-07T08:46:40.055Z,44.55
2019-04-07T08:47:36.272Z,42.82
2019-04-07T08:48:35.263Z,42.90
2019-04-07T08:49:36.307Z,43.08
2019-04-07T08:50:35.250Z,42.15
2019-04-07T08:51:35.226Z,41.65
2019-04-07T08:52:38.485Z,42.05
2019-04-07T08:53:36.220Z,41.35
2019-04-07T08:54:35.562Z,42.18
2019-04-07T08:55:35.573Z,42.40
2019-04-07T08:56:35.186Z,42.92
2019-04-07T08:57:35.810Z,43.32
2019-04-07T08:58:38.432Z,43.57
2019-04-07T08:59:35.345Z,44.37
2019-04-07T09:00:35.136Z,43.66
2019-04-07T09:01:35.129Z,44.79
2019-04-07T09:02:35.831Z,45.10
2019-04-07T09:03:35.805Z,44.07
2019-04-07T09:04:35.437Z,43.93
2019-04-07T09:05:35.452Z,42.70
2019-04-07T09:06:35.091Z,42.70
2019-04-07T09:07:35.083Z,42.27
2019-04-07T09:08:37.972Z,41.79
2019-04-07T09:09:37.542Z,42.80
2019-04-07T09:10:36.021Z,41.79
2019-04-07T09:11:35.011Z,41.77
2019-04-07T09:12:35.053Z,42.15
2019-04-07T09:13:34.990Z,41.37
2019-04-07T09:14:37.861Z,41.55
2019-04-07T09:15:34.987Z,41.69
2019-04-07T09:16:35.862Z,42.70
2019-04-07T09:17:40.491Z,43.10
2019-04-07T09:18:36.704Z,42.05
2019-04-07T09:19:35.846Z,41.73
2019-04-07T09:20:34.914Z,41.09
2019-04-07T09:21:40.004Z,40.57
2019-04-07T09:22:36.363Z,39.69
2019-04-07T09:23:35.456Z,41.67
2019-04-07T09:24:34.870Z,42.60
2019-04-07T09:25:37.867Z,42.38
2019-04-07T09:26:35.469Z,41.37
2019-04-07T09:27:35.300Z,42.58
2019-04-07T09:28:34.859Z,40.56
2019-04-07T09:29:35.315Z,41.37
2019-04-07T09:30:35.550Z,41.77
2019-04-07T09:31:34.979Z,41.77
2019-04-07T09:32:34.786Z,42.07
2019-04-07T09:33:37.469Z,41.37
2019-04-07T09:34:35.558Z,42.18
2019-04-07T09:35:36.116Z,41.15
2019-04-07T09:36:35.306Z,40.34
2019-04-07T09:37:34.859Z,40.69
2019-04-07T09:38:35.435Z,41.71
2019-04-07T09:39:52.794Z,40.99
2019-04-07T09:40:35.694Z,40.16
2019-04-07T09:41:35.252Z,40.99
2019-04-07T09:42:35.549Z,40.62
2019-04-07T09:43:34.855Z,41.73
2019-04-07T09:44:37.635Z,41.51
2019-04-07T09:45:34.643Z,41.20
2019-04-07T09:46:35.398Z,40.28
2019-04-07T09:47:34.746Z,40.08
2019-04-07T09:48:35.368Z,40.28
2019-04-07T09:49:35.320Z,40.69
2019-04-07T09:50:34.598Z,38.85
2019-04-07T09:51:37.613Z,40.06
2019-04-07T09:52:36.005Z,39.74
2019-04-07T09:53:34.975Z,39.86
2019-04-07T09:54:34.551Z,41.06
2019-04-07T09:55:34.533Z,40.97
2019-04-07T09:56:35.293Z,39.84
2019-04-07T09:57:37.000Z,39.84
2019-04-07T09:58:35.024Z,39.00
2019-04-07T09:59:35.000Z,37.51
2019-04-07T10:00:35.233Z,39.36
2019-04-07T10:01:35.254Z,39.28
2019-04-07T10:02:35.674Z,39.17
2019-04-07T10:03:37.685Z,39.48
2019-04-07T10:04:35.629Z,38.95
2019-04-07T10:05:34.417Z,38.85
2019-04-07T10:06:34.413Z,38.85
2019-04-07T10:07:34.870Z,39.45
2019-04-07T10:08:35.159Z,39.15
2019-04-07T10:09:34.368Z,38.85
2019-04-07T10:10:35.004Z,38.95
2019-04-07T10:11:34.354Z,38.95
2019-04-07T10:12:34.598Z,39.17
2019-04-07T10:13:34.323Z,40.18
2019-04-07T10:14:35.023Z,39.23
2019-04-07T10:15:34.304Z,38.55
2019-04-07T10:16:35.362Z,38.65
2019-04-07T10:17:34.407Z,37.23
2019-04-07T10:18:34.873Z,37.85
2019-04-07T10:19:35.122Z,37.91
2019-04-07T10:20:34.256Z,37.71
2019-04-07T10:21:34.969Z,36.82
2019-04-07T10:22:34.233Z,37.23
2019-04-07T10:23:34.214Z,38.25
2019-04-07T10:24:34.612Z,39.28
2019-04-07T10:25:34.318Z,38.55
2019-04-07T10:26:34.223Z,38.21
2019-04-07T10:27:34.170Z,37.12
2019-04-07T10:28:34.163Z,36.92
2019-04-07T10:29:34.150Z,37.23
2019-04-07T10:30:34.923Z,37.43
2019-04-07T10:31:34.937Z,37.23
2019-04-07T10:32:34.153Z,36.84
2019-04-07T10:33:34.374Z,37.02
2019-04-07T10:34:34.216Z,37.01
2019-04-07T10:35:34.877Z,38.01
2019-04-07T10:36:34.093Z,36.00
2019-04-07T10:37:34.460Z,37.41
2019-04-07T10:38:34.059Z,37.10
2019-04-07T10:39:34.930Z,36.80
2019-04-07T10:40:34.669Z,37.02
2019-04-07T10:41:34.658Z,37.74
2019-04-07T10:42:34.651Z,37.73
2019-04-07T10:43:34.903Z,37.32
2019-04-07T10:44:34.183Z,37.43
2019-04-07T10:45:34.076Z,37.30
2019-04-07T10:46:33.969Z,37.61
2019-04-07T10:47:34.678Z,37.73
2019-04-07T10:48:34.292Z,36.50
2019-04-07T10:49:34.081Z,36.99
2019-04-07T10:50:34.655Z,36.49
2019-04-07T10:51:34.316Z,36.18
2019-04-07T10:52:33.994Z,36.10
2019-04-07T10:53:35.124Z,35.68
2019-04-07T10:54:33.933Z,36.10
2019-04-07T10:55:34.142Z,37.23
2019-04-07T10:56:34.448Z,37.12
2019-04-07T10:57:34.459Z,36.82
2019-04-07T10:58:33.834Z,36.80
2019-04-07T10:59:34.251Z,37.89
2019-04-07T11:00:33.840Z,37.27
2019-04-07T11:01:34.583Z,37.07
2019-04-07T11:02:34.004Z,36.67
2019-04-07T11:03:34.084Z,37.57
2019-04-07T11:04:34.079Z,36.45
2019-04-07T11:05:33.770Z,35.85
2019-04-07T11:06:33.902Z,36.67
2019-04-07T11:07:33.875Z,35.86
2019-04-07T11:08:33.877Z,36.47
2019-04-07T11:09:34.376Z,36.57
2019-04-07T11:10:37.857Z,36.07
2019-04-07T11:11:34.711Z,36.18
2019-04-07T11:12:33.683Z,36.10
2019-04-07T11:13:34.278Z,35.71
2019-04-07T11:14:34.085Z,35.90
2019-04-07T11:15:34.079Z,34.88
2019-04-07T11:16:33.781Z,34.67
2019-04-07T11:17:33.832Z,34.96
2019-04-07T11:18:33.771Z,34.88
2019-04-07T11:19:34.365Z,35.06
2019-04-07T11:20:33.870Z,33.86
2019-04-07T11:21:33.846Z,35.70
2019-04-07T11:22:36.112Z,35.78
2019-04-07T11:23:33.566Z,34.56
2019-04-07T11:24:33.882Z,34.56
2019-04-07T11:25:33.680Z,35.57
2019-04-07T11:26:33.550Z,36.07
2019-04-07T11:27:33.517Z,35.97
2019-04-07T11:28:33.802Z,36.49
2019-04-07T11:29:33.702Z,36.35
2019-04-07T11:30:34.215Z,35.64
2019-04-07T11:31:34.128Z,35.93
2019-04-07T11:32:33.462Z,34.11
2019-04-07T11:33:34.091Z,34.31
2019-04-07T11:34:33.439Z,34.09
2019-04-07T11:35:33.430Z,32.09
2019-04-07T11:36:34.174Z,32.89
2019-04-07T11:37:33.410Z,33.39
2019-04-07T11:38:34.072Z,33.06
2019-04-07T11:39:33.400Z,33.19
2019-04-07T11:40:42.563Z,33.91
2019-04-07T11:41:34.376Z,34.02
2019-04-07T11:42:33.460Z,33.92
2019-04-07T11:43:33.375Z,34.22
2019-04-07T11:44:33.976Z,34.21
2019-04-07T11:45:33.481Z,34.39
2019-04-07T11:46:34.017Z,34.73
2019-04-07T11:47:33.967Z,34.53
2019-04-07T11:48:33.296Z,34.54
2019-04-07T11:49:33.277Z,34.83
2019-04-07T11:50:34.284Z,33.91
2019-04-07T11:51:33.259Z,33.31
2019-04-07T11:52:34.021Z,33.19
2019-04-07T11:53:33.239Z,34.09
2019-04-07T11:54:33.916Z,34.22
2019-04-07T11:55:33.418Z,33.75
2019-04-07T11:56:33.932Z,34.56
2019-04-07T11:57:33.459Z,33.84
2019-04-07T11:58:34.734Z,34.02
2019-04-07T11:59:33.416Z,32.81
2019-04-07T12:00:33.379Z,34.04
2019-04-07T12:01:33.864Z,34.12
2019-04-07T12:02:33.167Z,34.31
2019-04-07T12:03:33.144Z,33.11
2019-04-07T12:04:34.441Z,34.42
2019-04-07T12:05:33.337Z,33.92
2019-04-07T12:06:33.246Z,32.81
2019-04-07T12:07:33.407Z,33.29
2019-04-07T12:08:36.110Z,32.77
2019-04-07T12:09:33.682Z,32.15
2019-04-07T12:10:33.216Z,32.47
2019-04-07T12:11:33.036Z,33.26
2019-04-07T12:12:33.035Z,32.17
2019-04-07T12:13:33.046Z,31.47
2019-04-07T12:14:33.716Z,32.77
2019-04-07T12:15:33.521Z,31.46
2019-04-07T12:16:33.739Z,31.76
2019-04-07T12:17:33.040Z,31.26
2019-04-07T12:18:32.959Z,31.80
2019-04-07T12:19:33.372Z,32.50
2019-04-07T12:20:34.119Z,31.29
2019-04-07T12:21:36.408Z,32.12
2019-04-07T12:22:33.673Z,32.50
2019-04-07T12:23:33.661Z,32.21
2019-04-07T12:24:33.670Z,32.30
2019-04-07T12:25:33.890Z,29.68
2019-04-07T12:26:37.216Z,29.88
2019-04-07T12:27:34.559Z,30.10
2019-04-07T12:28:33.375Z,30.19
2019-04-07T12:29:33.165Z,30.27
2019-04-07T12:30:32.829Z,28.15
2019-04-07T12:31:33.460Z,28.05
2019-04-07T12:32:34.234Z,28.96
2019-04-07T12:33:32.914Z,29.35
2019-04-07T12:34:33.290Z,28.95
2019-04-07T12:35:33.965Z,29.24
2019-04-07T12:36:33.306Z,29.43
2019-04-07T12:37:35.012Z,28.22
2019-04-07T12:38:33.874Z,28.44
2019-04-07T12:39:34.176Z,27.95
2019-04-07T12:40:32.735Z,28.78
2019-04-07T12:41:33.057Z,28.48
2019-04-07T12:42:33.268Z,29.06
2019-04-07T12:43:32.824Z,28.02
2019-04-07T12:44:33.237Z,28.64
2019-04-07T12:45:34.755Z,28.45
2019-04-07T12:46:33.239Z,30.08
2019-04-07T12:47:32.662Z,31.38
2019-04-07T12:48:32.635Z,30.38
2019-04-07T12:49:34.351Z,29.65
2019-04-07T12:50:32.818Z,29.84
2019-04-07T12:51:32.873Z,29.55
2019-04-07T12:52:33.373Z,31.07